Time;durP1;ratioP1;P1;durP2;ratioP2;P2;SDS_P1;SDS_P2;PMS_P1;PMS_P2;Temp;Humidity;BMP_temperature;BMP_pressure;BME280_temperature;BME280_humidity;BME280_pressure;Samples;Min_cycle;Max_cycle;Signal;HPM_P1;HPM_P2
2021/10/29 00:00:52;;;;;;;9.98;5.93;;;11.20;99.90;;;12.15;75.72;100118.59;6100327;23;20095;-81
2021/10/29 00:03:19;;;;;;;10.60;5.82;;;11.20;99.90;;;12.22;75.80;100126.28;6075226;23;20014;-80
2021/10/29 00:05:47;;;;;;;11.18;5.60;;;11.20;99.90;;;12.22;75.92;100129.06;6075129;23;20010;-81
2021/10/29 00:08:13;;;;;;;11.27;6.00;;;11.20;99.90;;;12.32;75.40;100130.38;6100163;23;20081;-83
2021/10/29 00:10:39;;;;;;;12.35;6.07;;;11.30;99.90;;;12.25;75.58;100124.69;6073986;23;20089;-81
2021/10/29 00:13:05;;;;;;;8.85;5.68;;;11.30;99.90;;;12.28;75.35;100124.75;6080273;23;20034;-81
2021/10/29 00:15:32;;;;;;;9.40;5.60;;;11.40;99.90;;;12.34;75.65;100120.41;6103732;23;20057;-83
2021/10/29 00:17:58;;;;;;;10.93;5.50;;;11.40;99.90;;;12.35;75.54;100126.81;6098730;23;20010;-80
2021/10/29 00:20:25;;;;;;;10.45;5.57;;;11.40;99.90;;;12.42;75.52;100118.50;6072905;23;20129;-80
2021/10/29 00:22:51;;;;;;;9.40;5.07;;;11.50;99.90;;;12.49;75.71;100122.16;6072555;23;20089;-79
2021/10/29 00:25:18;;;;;;;10.00;5.30;;;11.50;99.90;;;12.51;75.12;100116.19;6073558;23;20332;-81
2021/10/29 00:27:47;;;;;;;7.72;4.75;;;11.50;99.90;;;12.59;75.70;100124.28;6073262;23;20015;-81
2021/10/29 00:30:14;;;;;;;10.43;5.50;;;11.60;99.90;;;12.64;75.38;100123.94;6096543;23;20511;-82
2021/10/29 00:32:41;;;;;;;10.05;4.93;;;11.70;99.90;;;12.74;75.67;100132.84;6098947;23;20009;-81
2021/10/29 00:35:08;;;;;;;10.18;5.45;;;11.70;99.90;;;12.66;75.94;100131.94;6097479;23;20018;-80
2021/10/29 00:37:38;;;;;;;8.57;4.95;;;11.70;99.90;;;12.61;76.33;100130.31;6073109;23;20069;-82
2021/10/29 00:40:11;;;;;;;9.40;5.10;;;11.70;99.90;;;12.62;76.39;100129.13;6074053;23;20448;-80
2021/10/29 00:42:40;;;;;;;10.00;5.57;;;11.70;99.90;;;12.63;76.89;100122.31;6097543;23;20463;-82
2021/10/29 00:45:10;;;;;;;9.43;5.50;;;11.70;99.90;;;12.75;76.21;100123.25;6073046;23;20440;-80
2021/10/29 00:47:36;;;;;;;7.20;4.47;;;11.80;99.90;;;12.78;75.77;100120.47;6050352;23;20348;-81
2021/10/29 00:50:05;;;;;;;7.80;5.28;;;11.90;99.90;;;12.75;76.72;100124.03;6072772;23;20021;-81
2021/10/29 00:52:32;;;;;;;8.93;5.55;;;11.90;99.90;;;12.84;75.85;100126.53;6097489;23;20440;-82
2021/10/29 00:55:01;;;;;;;10.10;5.47;;;12.00;99.90;;;12.78;76.26;100120.47;6096880;23;20007;-80
2021/10/29 00:57:27;;;;;;;8.65;5.28;;;11.90;99.90;;;12.81;76.22;100116.88;6050184;23;20345;-81
2021/10/29 00:59:53;;;;;;;8.45;5.55;;;11.90;99.90;;;12.83;75.97;100116.50;6072985;23;20022;-82
2021/10/29 01:02:19;;;;;;;9.32;4.93;;;11.90;99.90;;;12.86;75.33;100112.94;6073487;23;20049;-82
2021/10/29 01:04:45;;;;;;;10.95;5.07;;;11.90;99.90;;;12.87;75.48;100112.56;6097347;23;20038;-81
2021/10/29 01:07:12;;;;;;;9.95;5.15;;;11.90;99.90;;;12.79;75.87;100108.06;6099064;23;20037;-81
2021/10/29 01:09:39;;;;;;;8.70;4.70;;;11.90;99.90;;;12.78;75.61;100122.47;6099312;23;20006;-81
2021/10/29 01:12:06;;;;;;;10.18;4.50;;;11.80;99.90;;;12.72;76.08;100119.19;6073526;23;20014;-80
2021/10/29 01:14:32;;;;;;;7.78;4.95;;;11.70;99.90;;;12.59;76.69;100121.47;6073592;23;20402;-81
2021/10/29 01:16:58;;;;;;;11.20;5.47;;;11.60;99.90;;;12.47;77.40;100118.16;6097333;23;20041;-80
2021/10/29 01:19:33;;;;;;;8.10;5.03;;;11.60;99.90;;;12.50;76.97;100117.38;6072981;23;20022;-81
2021/10/29 01:22:03;;;;;;;9.80;5.28;;;11.60;99.90;;;12.63;76.86;100104.72;6097561;23;20010;-79
2021/10/29 01:24:30;;;;;;;7.50;4.82;;;11.60;99.90;;;12.55;76.85;100109.41;6073791;23;20014;-79
2021/10/29 01:26:56;;;;;;;8.38;5.18;;;11.70;99.90;;;12.71;75.99;100100.00;6073730;23;20345;-84
2021/10/29 01:29:22;;;;;;;7.72;5.45;;;11.80;99.90;;;12.66;76.25;100103.94;6099152;23;20006;-83
2021/10/29 01:31:49;;;;;;;9.77;5.55;;;11.70;99.90;;;12.62;76.11;100100.28;6097575;23;20345;-83
2021/10/29 01:34:15;;;;;;;9.50;4.50;;;11.60;99.90;;;12.56;76.04;100102.63;6102182;23;20047;-82
2021/10/29 01:36:43;;;;;;;8.45;4.72;;;11.60;99.90;;;12.57;76.41;100095.84;6103829;23;20030;-83
2021/10/29 01:39:09;;;;;;;9.55;5.18;;;11.70;99.90;;;12.54;76.17;100093.00;6105167;23;20010;-80
2021/10/29 01:41:35;;;;;;;9.20;4.95;;;11.60;99.90;;;12.56;76.45;100083.03;6102686;23;20021;-83
2021/10/29 01:44:03;;;;;;;7.82;5.18;;;11.60;99.90;;;12.59;75.40;100089.84;6110933;23;20017;-83
2021/10/29 01:46:29;;;;;;;7.63;4.53;;;11.70;99.90;;;12.69;75.08;100081.56;6104999;23;20010;-84
2021/10/29 01:48:56;;;;;;;8.50;5.00;;;11.70;99.90;;;12.65;75.01;100075.13;6077504;23;20045;-81
2021/10/29 01:51:23;;;;;;;9.98;4.50;;;11.70;99.90;;;12.67;74.90;100071.94;6076155;23;20022;-81
2021/10/29 01:53:49;;;;;;;10.23;4.50;;;11.70;99.90;;;12.60;75.40;100077.47;6076532;23;20503;-83
2021/10/29 01:56:15;;;;;;;8.98;4.90;;;11.60;99.90;;;12.62;75.29;100070.28;6076976;23;20006;-84
2021/10/29 01:58:41;;;;;;;7.78;4.95;;;11.70;99.90;;;12.59;75.35;100070.25;6100262;23;20058;-83
2021/10/29 02:01:07;;;;;;;9.00;5.50;;;11.60;99.90;;;12.58;75.40;100058.25;6101956;23;20014;-82
2021/10/29 02:03:34;;;;;;;8.90;4.47;;;11.60;99.90;;;12.56;75.33;100057.81;6101042;23;20381;-82
2021/10/29 02:06:01;;;;;;;10.32;4.47;;;11.70;99.90;;;12.65;74.78;100061.09;6100589;23;20148;-82
2021/10/29 02:08:27;;;;;;;11.60;5.18;;;11.70;99.90;;;12.57;74.98;100053.84;6074031;23;20441;-82
2021/10/29 02:10:55;;;;;;;10.45;5.00;;;11.60;99.90;;;12.62;74.61;100049.84;6099398;23;20002;-79
2021/10/29 02:13:22;;;;;;;9.30;4.80;;;11.60;99.90;;;12.63;74.46;100051.47;6072909;23;20270;-80
2021/10/29 02:15:49;;;;;;;8.88;4.88;;;11.70;99.90;;;12.68;74.16;100051.16;6096686;23;20034;-81
2021/10/29 02:18:16;;;;;;;7.07;4.15;;;11.70;99.90;;;12.60;74.38;100055.88;6098130;23;20340;-81
2021/10/29 02:20:44;;;;;;;10.23;5.43;;;11.70;99.90;;;12.62;74.08;100047.06;6072046;23;20014;-81
2021/10/29 02:23:15;;;;;;;9.00;4.85;;;11.70;99.90;;;12.76;74.05;100041.59;6097197;23;20025;-79
2021/10/29 02:25:46;;;;;;;8.90;4.20;;;11.80;99.90;;;12.80;73.44;100041.63;6092357;23;20101;-79
2021/10/29 02:28:16;;;;;;;5.50;3.80;;;11.70;99.90;;;12.79;73.61;100034.41;6071943;23;20050;-80
2021/10/29 02:30:45;;;;;;;9.15;4.60;;;11.80;99.90;;;12.82;73.25;100034.44;6095354;23;20397;-82
2021/10/29 02:33:13;;;;;;;7.68;3.97;;;11.70;99.90;;;12.76;73.79;100033.19;6098220;23;20032;-80
2021/10/29 02:35:39;;;;;;;9.18;4.47;;;11.80;99.90;;;12.73;73.59;100030.34;6097750;23;20006;-81
2021/10/29 02:38:06;;;;;;;20.55;4.72;;;11.80;99.90;;;12.73;73.64;100035.94;6098723;23;20006;-82
2021/10/29 02:40:32;;;;;;;7.40;4.05;;;11.80;99.90;;;12.66;74.23;100036.69;6098407;23;20152;-83
2021/10/29 02:42:59;;;;;;;9.00;4.38;;;11.70;99.90;;;12.67;74.48;100029.91;6074071;23;20047;-83
2021/10/29 02:45:25;;;;;;;7.78;4.97;;;11.70;99.90;;;12.65;74.42;100024.69;6075534;23;20021;-82
2021/10/29 02:47:51;;;;;;;7.32;4.22;;;11.70;99.90;;;12.77;73.34;100026.41;6099186;23;20010;-83
2021/10/29 02:50:22;;;;;;;8.65;4.57;;;11.80;99.90;;;12.87;72.84;100022.88;6099576;23;20037;-81
2021/10/29 02:52:49;;;;;;;7.35;4.38;;;12.00;99.90;;;12.92;72.92;100021.69;6071227;23;20343;-81
2021/10/29 02:55:16;;;;;;;7.32;4.55;;;12.10;99.90;;;12.97;72.53;100019.31;6071596;23;20069;-81
2021/10/29 02:57:43;;;;;;;9.30;4.57;;;12.00;99.90;;;12.96;72.27;100017.75;6071833;23;20042;-81
2021/10/29 03:00:17;;;;;;;8.43;3.78;;;12.10;99.90;;;13.05;71.94;100015.41;6071282;23;20445;-80
2021/10/29 03:02:46;;;;;;;11.57;5.07;;;12.00;99.90;;;12.99;72.00;100013.34;6071592;23;20180;-80
2021/10/29 03:05:14;;;;;;;10.25;4.13;;;12.10;99.90;;;12.96;72.73;100012.13;6071818;23;20053;-79
2021/10/29 03:07:41;;;;;;;7.50;4.50;;;12.00;99.90;;;12.95;72.14;100004.91;6095643;23;20034;-80
2021/10/29 03:10:12;;;;;;;8.57;4.40;;;12.00;99.90;;;13.05;71.95;100011.78;6071317;23;20015;-83
2021/10/29 03:12:40;;;;;;;8.50;4.20;;;12.00;99.90;;;12.91;72.62;100006.88;6071062;23;20027;-82
2021/10/29 03:15:09;;;;;;;7.15;4.50;;;12.00;99.90;;;12.92;72.41;99999.28;6095069;23;20051;-79
2021/10/29 03:17:37;;;;;;;6.85;4.13;;;12.00;99.90;;;12.94;72.42;100002.50;6072120;23;20014;-81
2021/10/29 03:20:08;;;;;;;8.20;4.20;;;11.90;99.90;;;12.93;72.22;100001.69;6072276;23;20097;-79
2021/10/29 03:22:33;;;;;;;9.57;4.20;;;11.90;99.90;;;12.87;72.69;100002.44;6072038;23;20063;-81
2021/10/29 03:24:59;;;;;;;6.28;4.13;;;11.90;99.90;;;12.93;72.74;100007.31;6098053;23;20022;-81
2021/10/29 03:27:25;;;;;;;8.77;4.43;;;12.00;99.90;;;12.95;72.61;100015.31;6096047;23;20102;-82
2021/10/29 03:29:51;;;;;;;7.43;4.07;;;12.00;99.90;;;12.83;73.05;100010.03;6096535;23;20006;-81
2021/10/29 03:32:19;;;;;;;6.38;4.20;;;11.90;99.90;;;12.76;73.62;100002.38;6094238;23;20013;-82
2021/10/29 03:34:45;;;;;;;8.40;4.25;;;11.80;99.90;;;12.77;73.46;99998.38;6094197;23;20360;-80
2021/10/29 03:37:25;;;;;;;8.05;4.13;;;11.90;99.90;;;12.84;73.15;99994.81;6096072;23;20150;-80
2021/10/29 03:40:05;;;;;;;7.20;4.60;;;11.90;99.90;;;12.89;73.19;99989.66;6070471;23;20014;-80
2021/10/29 03:42:38;;;;;;;10.07;4.60;;;12.00;99.90;;;13.06;72.57;99985.38;6070924;23;20392;-80
2021/10/29 03:45:10;;;;;;;8.13;4.40;;;12.20;99.90;;;13.22;71.25;99983.09;6070459;23;20006;-79
2021/10/29 03:47:50;;;;;;;6.95;4.00;;;12.30;99.90;;;13.31;71.02;99982.72;6075073;23;20015;-83
2021/10/29 03:50:23;;;;;;;6.72;4.72;;;12.40;99.90;;;13.38;70.68;99972.38;6100124;23;20033;-84
2021/10/29 03:53:06;;;;;;;9.25;4.22;;;12.40;99.90;;;13.33;70.90;99975.53;6070553;23;20013;-82
2021/10/29 03:55:35;;;;;;;7.30;4.55;;;12.40;99.90;;;13.37;70.65;99975.53;6070497;23;20014;-81
2021/10/29 03:58:01;;;;;;;7.68;3.95;;;12.40;99.90;;;13.30;70.93;99986.72;6071561;23;20114;-81
2021/10/29 04:00:30;;;;;;;10.70;4.38;;;12.40;99.90;;;13.26;71.10;99978.28;6072341;23;20014;-82
2021/10/29 04:03:05;;;;;;;7.60;4.25;;;12.40;99.90;;;13.19;71.32;99976.28;6072469;23;20064;-82
2021/10/29 04:05:34;;;;;;;5.55;3.78;;;12.30;99.90;;;13.16;71.56;99982.63;6097881;23;20443;-80
2021/10/29 04:08:02;;;;;;;6.80;3.80;;;12.20;99.90;;;13.08;71.70;99975.41;6099535;23;20112;-79
2021/10/29 04:10:30;;;;;;;8.20;3.92;;;12.20;99.90;;;13.08;72.19;99978.19;6097464;23;20448;-79
2021/10/29 04:13:02;;;;;;;8.15;4.50;;;12.10;99.90;;;13.09;71.70;99977.00;6097758;23;20006;-81
2021/10/29 04:15:29;;;;;;;8.15;4.88;;;12.20;99.90;;;13.12;71.95;99970.63;6073162;23;20006;-81
2021/10/29 04:17:55;;;;;;;7.18;4.25;;;12.20;99.90;;;13.24;71.05;99977.88;6073338;23;20061;-82
2021/10/29 04:20:22;;;;;;;7.20;4.80;;;12.30;99.90;;;13.27;71.24;99974.28;6098227;23;20075;-82
2021/10/29 04:22:48;;;;;;;8.50;4.47;;;12.30;99.90;;;13.32;70.51;99968.34;6098658;23;20010;-82
2021/10/29 04:25:14;;;;;;;6.70;4.03;;;12.20;99.90;;;13.12;71.45;99967.00;6072834;23;20014;-81
2021/10/29 04:27:54;;;;;;;8.25;4.57;;;12.20;99.90;;;13.12;71.58;99972.63;6098530;23;20006;-81
2021/10/29 04:30:22;;;;;;;10.15;4.20;;;12.20;99.90;;;13.16;71.22;99965.03;6073025;23;20508;-81
2021/10/29 04:32:49;;;;;;;9.52;4.93;;;12.20;99.90;;;13.20;71.19;99972.25;6073183;23;20452;-80
2021/10/29 04:35:15;;;;;;;7.10;4.18;;;12.20;99.90;;;13.23;70.83;99967.09;6072352;23;20017;-79
2021/10/29 04:37:44;;;;;;;6.70;3.95;;;12.30;99.90;;;13.25;70.77;99961.88;6099666;23;20015;-81
2021/10/29 04:40:11;;;;;;;8.05;4.85;;;12.30;99.90;;;13.23;71.13;99964.28;6099470;23;20033;-82
2021/10/29 04:42:40;;;;;;;7.22;4.63;;;12.20;99.90;;;13.18;70.78;99962.63;6073669;23;20404;-80
2021/10/29 04:45:08;;;;;;;7.63;4.53;;;12.30;99.90;;;13.24;70.70;99963.88;6073140;23;20041;-82
2021/10/29 04:47:34;;;;;;;7.80;4.35;;;12.30;99.90;;;13.28;70.58;99949.88;6099584;23;20036;-78
2021/10/29 04:50:01;;;;;;;6.80;4.25;;;12.30;99.90;;;13.35;70.28;99956.31;6098450;23;20006;-80
2021/10/29 04:52:27;;;;;;;9.60;4.53;;;12.30;99.90;;;13.37;70.16;99947.50;6099067;23;20041;-82
2021/10/29 04:54:53;;;;;;;7.57;3.97;;;12.30;99.90;;;13.38;70.21;99941.50;6073209;23;20014;-81
2021/10/29 04:57:18;;;;;;;10.80;4.22;;;12.30;99.90;;;13.38;69.93;99935.91;6098086;23;20011;-81
2021/10/29 04:59:44;;;;;;;7.70;4.07;;;12.40;99.90;;;13.36;69.95;99943.88;6073324;23;20463;-81
2021/10/29 05:02:10;;;;;;;6.32;4.00;;;12.30;99.90;;;13.48;69.53;99949.16;6098077;23;20006;-83
2021/10/29 05:04:36;;;;;;;8.43;4.10;;;12.40;99.90;;;13.45;69.64;99946.34;6074463;23;20014;-80
2021/10/29 05:07:02;;;;;;;6.93;4.15;;;12.40;99.90;;;13.32;70.12;99939.47;6099906;23;20013;-80
2021/10/29 05:09:28;;;;;;;7.82;4.38;;;12.30;99.90;;;13.46;69.55;99937.53;6097625;23;20038;-80
2021/10/29 05:11:54;;;;;;;10.75;4.13;;;12.40;99.90;;;13.43;69.30;99934.69;6073835;23;20006;-80
2021/10/29 05:14:20;;;;;;;6.78;3.90;;;12.40;99.90;;;13.50;69.34;99932.75;6073394;23;20006;-80
2021/10/29 05:16:46;;;;;;;9.23;4.78;;;12.50;99.90;;;13.60;68.81;99936.78;6073164;23;19998;-80
2021/10/29 05:19:11;;;;;;;7.00;4.03;;;12.50;99.90;;;13.58;68.86;99933.56;6073332;23;20025;-81
2021/10/29 05:21:37;;;;;;;8.05;4.55;;;12.50;99.90;;;13.63;68.76;99938.78;6099324;23;20007;-80
2021/10/29 05:24:03;;;;;;;7.72;3.70;;;12.50;99.90;;;13.47;69.51;99935.53;6073523;23;20010;-83
2021/10/29 05:26:29;;;;;;;9.20;3.47;;;12.40;99.90;;;13.37;69.83;99930.66;6073586;23;20046;-83
2021/10/29 05:28:55;;;;;;;7.10;3.65;;;12.20;99.90;;;13.26;70.46;99924.22;6073464;23;20010;-79
2021/10/29 05:31:21;;;;;;;6.65;3.50;;;12.20;99.90;;;13.17;70.49;99919.78;6072678;23;20025;-80
2021/10/29 05:33:46;;;;;;;7.90;4.18;;;12.10;99.90;;;13.08;71.01;99922.13;6097448;23;20018;-81
2021/10/29 05:36:12;;;;;;;6.03;4.18;;;12.00;99.90;;;12.96;71.76;99925.25;6099109;23;20017;-79
2021/10/29 05:38:39;;;;;;;9.02;5.10;;;11.90;99.90;;;13.06;70.89;99916.09;6100057;23;20017;-83
2021/10/29 05:41:05;;;;;;;7.32;3.90;;;11.90;99.90;;;13.08;71.23;99915.69;6097850;23;20010;-81
2021/10/29 05:43:32;;;;;;;6.68;3.83;;;12.00;99.90;;;13.06;71.56;99915.28;6099455;23;20061;-78
2021/10/29 05:45:57;;;;;;;9.75;4.35;;;11.90;99.90;;;12.99;71.85;99910.44;6099071;23;20006;-82
2021/10/29 05:48:24;;;;;;;6.53;3.50;;;11.80;99.90;;;12.99;70.93;99910.44;6099893;23;20010;-83
2021/10/29 05:50:51;;;;;;;8.95;4.38;;;11.90;99.90;;;13.09;71.11;99918.13;6075433;23;20094;-82
2021/10/29 05:53:53;;;;;;;5.75;3.70;;;11.90;99.90;;;13.12;70.81;99917.34;6107834;23;20311;-84
2021/10/29 05:56:06;;;;;;;8.00;3.92;;;12.00;99.90;;;13.14;71.11;99908.53;6100725;23;20037;-77
2021/10/29 05:58:35;;;;;;;5.63;3.25;;;12.00;99.90;;;13.13;70.95;99913.34;6100941;23;20014;-80
2021/10/29 06:01:01;;;;;;;7.85;3.53;;;11.90;99.90;;;13.06;70.81;99907.69;6075423;23;20018;-81
2021/10/29 06:03:27;;;;;;;9.27;3.70;;;11.90;99.90;;;13.02;71.31;99908.84;6100475;23;20077;-79
2021/10/29 06:05:55;;;;;;;7.88;3.55;;;11.80;99.90;;;13.10;70.77;99905.72;6075794;23;20014;-82
2021/10/29 06:08:22;;;;;;;5.55;3.38;;;11.80;99.90;;;13.11;70.68;99907.31;6073672;23;20317;-82
2021/10/29 06:10:48;;;;;;;5.95;3.60;;;11.90;99.90;;;13.12;70.69;99913.75;6100503;23;20028;-81
2021/10/29 06:13:14;;;;;;;6.38;3.75;;;11.90;99.90;;;12.96;70.75;99905.63;6074809;23;20348;-84
2021/10/29 06:15:43;;;;;;;6.82;3.70;;;11.70;99.90;;;12.67;72.85;99907.44;6104672;23;20002;-81
2021/10/29 06:18:12;;;;;;;12.18;3.65;;;11.50;99.90;;;12.54;73.42;99899.75;6119179;23;20007;-79
2021/10/29 06:20:39;;;;;;;9.50;3.90;;;11.40;99.90;;;12.68;72.84;99894.25;6113948;23;20540;-79
2021/10/29 06:23:07;;;;;;;6.40;3.50;;;11.40;99.90;;;12.66;72.72;99893.81;6107783;23;20011;-82
2021/10/29 06:25:46;;;;;;;10.32;3.85;;;11.40;99.90;;;12.58;72.62;99887.38;6073345;23;20101;-79
2021/10/29 06:28:30;;;;;;;4.97;3.45;;;11.30;99.90;;;12.54;73.33;99889.34;6099163;23;20011;-80
2021/10/29 06:30:58;;;;;;;6.20;3.53;;;11.30;99.90;;;12.48;73.31;99887.28;6072952;23;20006;-83
2021/10/29 06:33:25;;;;;;;6.78;3.53;;;11.20;99.90;;;12.52;72.96;99890.94;6074064;23;20480;-82
2021/10/29 06:35:55;;;;;;;8.05;3.55;;;11.30;99.90;;;12.50;72.77;99882.09;6098757;23;20029;-80
2021/10/29 06:38:22;;;;;;;7.80;4.05;;;11.20;99.90;;;12.42;73.36;99886.88;6073602;23;20021;-80
2021/10/29 06:40:50;;;;;;;11.38;3.85;;;11.10;99.90;;;12.33;73.84;99891.97;6074664;23;20536;-79
2021/10/29 06:43:26;;;;;;;6.65;4.05;;;11.10;99.90;;;12.32;74.20;99892.38;6074150;23;20017;-82
2021/10/29 06:48:33;;;;;;;10.00;4.35;;;11.30;99.90;;;12.67;72.27;99887.84;6108832;23;20017;-82
2021/10/29 07:42:40;;;;;;;7.95;4.10;;;13.10;99.90;;;14.24;67.12;99929.28;6112659;23;20044;-82
2021/10/29 07:45:11;;;;;;;6.15;4.20;;;13.20;99.90;;;14.47;66.45;99923.31;6100872;23;20006;-79
2021/10/29 07:47:39;;;;;;;6.57;3.92;;;13.30;99.90;;;14.67;66.07;99922.47;6077300;23;20018;-79
2021/10/29 07:50:10;;;;;;;7.65;3.95;;;13.50;99.90;;;14.85;65.08;99921.66;6078640;23;20011;-79
2021/10/29 07:52:38;;;;;;;8.15;3.78;;;13.60;99.90;;;15.07;64.83;99928.84;6109851;23;20010;-81
2021/10/29 07:55:11;;;;;;;7.28;4.00;;;13.80;99.90;;;15.23;64.34;99915.94;6060853;23;20086;-80
2021/10/29 07:57:40;;;;;;;8.75;4.32;;;14.00;99.90;;;15.56;64.26;99931.53;6104593;23;20007;-79
2021/10/29 08:00:09;;;;;;;6.15;3.75;;;14.20;99.90;;;15.66;63.15;99918.59;6108265;23;20025;-78
2021/10/29 08:02:36;;;;;;;8.02;4.10;;;14.40;99.90;;;15.79;61.90;99919.75;6113286;23;20022;-77
2021/10/29 08:05:05;;;;;;;8.75;3.95;;;14.60;99.90;;;15.83;62.14;99910.03;6109434;23;20006;-78
2021/10/29 08:07:31;;;;;;;5.00;3.60;;;14.70;99.90;;;15.71;62.67;99916.16;6084308;23;20032;-78
2021/10/29 08:10:04;;;;;;;8.52;4.20;;;14.70;99.90;;;15.49;63.04;99922.28;6106765;23;20002;-79
2021/10/29 08:12:34;;;;;;;7.05;3.90;;;14.60;99.90;;;15.71;62.78;99912.53;6110224;23;20016;-79
2021/10/29 08:15:03;;;;;;;7.50;3.97;;;14.60;99.90;;;15.80;62.47;99912.88;6110945;23;20006;-79
2021/10/29 08:17:33;;;;;;;8.05;4.00;;;14.70;99.90;;;15.69;63.43;99920.59;6110282;23;20413;-78
2021/10/29 08:20:06;;;;;;;7.05;3.70;;;14.70;99.90;;;15.66;63.12;99919.41;6088124;23;20078;-80
2021/10/29 08:22:35;;;;;;;8.02;4.13;;;14.70;99.90;;;15.92;62.20;99918.06;6083870;23;20348;-78
2021/10/29 08:25:03;;;;;;;7.70;3.88;;;14.80;99.90;;;16.10;61.37;99930.00;6105721;23;20007;-80
2021/10/29 08:27:29;;;;;;;6.65;4.10;;;15.00;99.90;;;15.95;62.04;99925.69;6106998;23;20014;-80
2021/10/29 08:29:55;;;;;;;7.50;4.28;;;15.00;99.90;;;16.03;61.51;99910.31;6081522;23;20003;-79
2021/10/29 08:32:21;;;;;;;7.90;4.00;;;15.10;99.90;;;15.96;61.94;99924.44;6081128;23;20010;-79
2021/10/29 08:34:47;;;;;;;7.97;4.47;;;15.00;99.90;;;16.04;61.71;99916.75;6101217;23;20007;-81
2021/10/29 08:37:15;;;;;;;7.05;4.45;;;15.00;99.90;;;15.92;62.05;99920.06;6101231;23;20367;-82
2021/10/29 08:39:42;;;;;;;8.70;4.70;;;15.00;99.90;;;15.60;63.04;99915.44;6101149;23;20010;-80
2021/10/29 08:42:09;;;;;;;8.48;4.93;;;14.80;99.90;;;15.58;63.01;99926.28;6097851;23;20083;-82
2021/10/29 08:44:36;;;;;;;9.13;4.82;;;14.70;99.90;;;15.43;63.92;99926.72;6048916;23;20483;-79
2021/10/29 08:47:05;;;;;;;10.80;5.10;;;14.60;99.90;;;15.41;64.06;99923.53;6049013;23;20576;-81
2021/10/29 08:49:34;;;;;;;8.35;4.90;;;14.50;99.90;;;15.32;64.92;99929.56;6075160;23;20022;-81
2021/10/29 08:52:05;;;;;;;8.77;4.80;;;14.40;99.90;;;15.12;65.23;99932.03;6024994;23;20101;-81
2021/10/29 08:54:31;;;;;;;12.98;5.20;;;14.20;99.90;;;14.98;65.51;99918.03;6047160;23;20014;-79
2021/10/29 08:57:00;;;;;;;10.45;5.68;;;14.20;99.90;;;15.01;66.10;99914.41;6074329;23;20002;-80
2021/10/29 08:59:31;;;;;;;10.70;5.45;;;14.10;99.90;;;15.08;66.02;99919.22;6074000;23;20037;-82
2021/10/29 09:02:12;;;;;;;9.93;6.47;;;14.10;99.90;;;14.89;66.45;99916.84;6048464;23;20022;-81
2021/10/29 09:05:20;;;;;;;11.13;5.13;;;14.10;99.90;;;15.03;66.31;99913.97;6072475;23;20433;-81
2021/10/29 09:33:07;;;;;;;8.65;5.13;;;14.80;99.90;;;15.94;63.75;99900.72;6073320;23;20046;-80
2021/10/29 09:35:38;;;;;;;12.50;5.82;;;14.90;99.90;;;16.15;63.95;99894.97;6071657;23;20007;-82
2021/10/29 09:38:14;;;;;;;8.65;5.28;;;15.10;99.90;;;16.20;63.13;99894.50;6072541;23;20026;-80
2021/10/29 09:41:03;;;;;;;8.05;5.35;;;15.20;99.90;;;16.45;63.21;99883.84;6073778;23;20321;-82
2021/10/29 09:43:36;;;;;;;8.50;4.82;;;15.30;99.90;;;16.57;61.56;99883.34;6071787;23;20082;-80
2021/10/29 09:46:06;;;;;;;11.15;5.07;;;15.60;99.90;;;16.70;61.58;99886.44;6047689;23;20444;-81
2021/10/29 09:48:41;;;;;;;8.48;4.50;;;15.70;99.90;;;16.74;61.35;99890.84;6072933;23;20215;-81
2021/10/29 09:51:11;;;;;;;8.15;4.38;;;15.80;99.90;;;16.93;61.11;99897.91;6071691;23;20066;-81
2021/10/29 09:58:45;;;;;;;10.30;4.32;;;16.30;99.90;;;17.58;59.78;99879.00;6072480;23;20025;-82
2021/10/29 10:01:13;;;;;;;8.55;4.70;;;16.50;99.90;;;17.33;59.92;99871.63;6071292;23;20018;-81
2021/10/29 10:03:42;;;;;;;6.70;4.10;;;16.50;99.90;;;17.53;59.00;99863.28;6048966;23;20019;-81
2021/10/29 10:06:09;;;;;;;8.23;4.10;;;16.50;99.90;;;17.20;58.87;99859.31;6047630;23;20023;-81
2021/10/29 10:08:39;;;;;;;8.18;4.07;;;16.50;99.90;;;17.40;58.75;99856.63;6071012;23;20011;-79
2021/10/29 10:11:09;;;;;;;6.22;3.90;;;16.50;99.90;;;18.00;58.24;99852.16;6047737;23;20018;-83
2021/10/29 10:13:41;;;;;;;7.38;4.00;;;16.80;99.90;;;18.26;57.19;99859.81;6025298;23;20040;-80
2021/10/29 10:16:09;;;;;;;7.82;3.90;;;17.00;99.90;;;18.13;57.58;99853.16;6074637;23;20386;-83
2021/10/29 10:18:35;;;;;;;6.65;3.63;;;17.00;99.90;;;17.80;57.55;99857.69;6072393;23;20014;-79
2021/10/29 10:21:11;;;;;;;8.02;4.35;;;17.00;99.90;;;17.82;57.17;99856.03;6047918;23;20359;-80
2021/10/29 10:23:44;;;;;;;6.95;3.58;;;16.90;99.90;;;18.14;56.95;99863.25;6024730;23;20078;-80
2021/10/29 10:46:10;;;;;;;6.13;3.65;;;18.10;99.90;;;18.76;54.50;99839.94;6074579;23;20066;-81
2021/10/29 10:48:53;;;;;;;7.32;3.50;;;17.80;99.90;;;18.80;54.62;99832.19;6088267;23;20150;-80
2021/10/29 10:54:39;;;;;;;5.03;3.35;;;17.60;99.90;;;18.61;54.36;99818.81;6076800;23;20321;-80
2021/10/29 11:11:05;;;;;;;5.45;3.22;;;17.20;99.90;;;17.87;57.05;99798.28;6075145;23;20526;-81
2021/10/29 11:13:56;;;;;;;6.72;3.42;;;16.90;99.90;;;17.50;56.85;99784.31;6074752;23;20014;-80
2021/10/29 11:16:55;;;;;;;4.72;3.05;;;16.70;99.90;;;17.48;57.34;99776.25;6048262;23;20074;-81
2021/10/29 11:19:33;;;;;;;7.30;3.33;;;16.60;99.90;;;17.72;57.87;99777.16;6058800;23;20015;-81
2021/10/29 11:22:00;;;;;;;7.55;3.72;;;16.70;99.90;;;18.26;56.12;99784.28;6075746;23;20106;-78
2021/10/29 11:24:40;;;;;;;6.75;3.70;;;17.00;99.90;;;18.62;54.36;99783.66;6050513;23;20010;-81
2021/10/29 11:27:15;;;;;;;7.03;3.38;;;17.30;99.90;;;19.09;53.01;99768.13;6026521;23;20334;-79
2021/10/29 11:29:59;;;;;;;4.40;3.25;;;17.60;99.90;;;19.07;52.91;99767.75;6049569;23;20079;-80
2021/10/29 11:32:26;;;;;;;4.43;3.38;;;17.80;99.90;;;19.05;54.44;99763.78;6075522;23;20007;-81
2021/10/29 11:35:02;;;;;;;7.10;3.10;;;17.80;99.90;;;19.00;53.34;99762.28;6049712;23;20031;-81
2021/10/29 11:37:36;;;;;;;9.00;3.70;;;17.90;99.90;;;18.63;54.77;99749.28;6049678;23;20162;-81
2021/10/29 11:40:06;;;;;;;7.05;3.10;;;17.60;99.90;;;18.29;54.95;99751.53;6074917;23;20023;-81
2021/10/29 11:42:32;;;;;;;6.13;3.08;;;17.40;99.90;;;18.87;54.36;99753.66;6074228;23;20081;-80
2021/10/29 11:45:02;;;;;;;7.80;3.33;;;17.60;99.90;;;19.32;53.37;99756.72;6048184;23;20015;-80
2021/10/29 11:47:31;;;;;;;5.47;3.13;;;18.00;99.90;;;19.39;52.03;99748.03;6073871;23;20401;-81
2021/10/29 11:50:12;;;;;;;10.02;3.78;;;18.20;98.40;;;19.42;51.50;99744.34;6075197;23;20322;-81
2021/10/29 11:52:43;;;;;;;6.35;3.05;;;18.30;97.70;;;19.34;52.86;99750.59;6073312;23;20013;-80
2021/10/29 11:55:38;;;;;;;4.85;3.20;;;18.30;99.00;;;19.36;52.15;99750.97;6049640;23;20007;-80
2021/10/29 11:58:10;;;;;;;5.32;3.15;;;18.30;97.60;;;19.24;53.00;99745.97;6072589;23;20015;-80
2021/10/29 12:08:43;;;;;;;4.75;3.28;;;18.10;96.20;;;19.38;51.30;99720.97;6085091;23;20015;-80
2021/10/29 12:11:09;;;;;;;4.60;2.88;;;18.20;95.90;;;19.30;52.40;99715.91;6049862;23;20010;-80
2021/10/29 12:13:40;;;;;;;8.25;2.95;;;18.20;96.70;;;19.25;52.59;99711.56;6073721;23;20061;-81
2021/10/29 12:16:21;;;;;;;4.50;2.75;;;18.20;96.80;;;19.66;51.24;99724.38;6025581;23;20014;-79
2021/10/29 12:19:01;;;;;;;6.35;2.60;;;18.40;95.80;;;19.11;52.05;99711.88;6048959;23;20014;-80
2021/10/29 12:21:33;;;;;;;4.72;2.92;;;18.20;94.60;;;19.04;52.30;99716.94;6073563;23;20406;-80
2021/10/29 12:24:05;;;;;;;8.10;3.08;;;18.10;95.80;;;18.64;53.16;99714.13;6075289;23;20026;-80
2021/10/29 12:26:38;;;;;;;6.15;3.40;;;17.80;96.50;;;18.35;53.95;99705.38;6075477;23;20011;-81
2021/10/29 12:29:16;;;;;;;4.15;2.60;;;17.60;97.30;;;18.42;54.80;99696.75;6048762;23;20015;-80
2021/10/29 12:36:30;;;;;;;5.28;3.00;;;17.80;98.80;;;19.10;51.62;99690.50;6084777;23;20023;-79
2021/10/29 12:37:59;;;;;;;7.18;2.90;;;18.00;95.70;;;19.60;51.05;99689.31;6074249;23;20022;-81